Time;durP1;ratioP1;P1;durP2;ratioP2;P2;SDS_P1;SDS_P2;PMS_P1;PMS_P2;Temp;Humidity;BMP_temperature;BMP_pressure;BME280_temperature;BME280_humidity;BME280_pressure;Samples;Min_cycle;Max_cycle;Signal;HPM_P1;HPM_P2
2022/01/07 00:01:35;;;;;;;4.55;3.35;;;0.60;98.30;;;;;;4996891;28;20026;-84
2022/01/07 00:04:02;;;;;;;3.90;2.58;;;0.60;98.20;;;;;;4997349;28;20046;-82
2022/01/07 00:06:27;;;;;;;4.13;2.67;;;0.60;98.00;;;;;;4997287;28;20052;-83
2022/01/07 00:08:53;;;;;;;6.78;2.65;;;0.60;97.80;;;;;;4993027;28;20031;-82
2022/01/07 00:11:19;;;;;;;5.03;2.55;;;0.60;97.60;;;;;;4994958;28;20019;-81
2022/01/07 00:13:45;;;;;;;3.55;2.10;;;0.60;97.40;;;;;;4991486;28;20049;-81
2022/01/07 00:16:11;;;;;;;2.95;1.70;;;0.50;97.20;;;;;;4988026;28;20030;-81
2022/01/07 00:18:41;;;;;;;2.10;1.63;;;0.50;96.90;;;;;;4978026;28;20023;-80
2022/01/07 00:21:07;;;;;;;1.45;1.23;;;0.50;96.60;;;;;;4995936;28;20404;-81
2022/01/07 00:23:33;;;;;;;1.42;1.05;;;0.40;96.10;;;;;;4997064;28;20026;-82
2022/01/07 00:25:59;;;;;;;1.95;1.52;;;0.40;95.70;;;;;;4995826;28;20018;-81
2022/01/07 00:28:25;;;;;;;2.70;1.30;;;0.30;95.60;;;;;;4995573;28;20380;-82
2022/01/07 00:30:51;;;;;;;2.92;1.50;;;0.30;95.50;;;;;;4995848;28;20034;-82
2022/01/07 00:33:17;;;;;;;2.30;1.58;;;0.30;95.50;;;;;;4998152;28;20114;-80
2022/01/07 00:35:43;;;;;;;2.80;1.75;;;0.30;95.50;;;;;;5002928;28;20033;-84
2022/01/07 00:38:09;;;;;;;1.80;1.23;;;0.30;95.50;;;;;;4985878;28;20026;-83
2022/01/07 00:40:35;;;;;;;1.73;1.17;;;0.40;95.30;;;;;;4996052;28;20046;-84
2022/01/07 00:43:01;;;;;;;1.38;1.20;;;0.40;95.00;;;;;;4996317;28;20019;-84
2022/01/07 00:45:28;;;;;;;1.90;1.10;;;0.40;94.90;;;;;;4996709;28;20038;-82
2022/01/07 00:47:55;;;;;;;2.58;1.67;;;0.40;94.60;;;;;;4995255;28;20022;-83
2022/01/07 00:50:22;;;;;;;1.70;1.38;;;0.40;94.50;;;;;;4996368;28;20033;-82
2022/01/07 00:52:48;;;;;;;2.55;1.55;;;0.40;94.40;;;;;;4996127;28;20030;-80
2022/01/07 00:55:15;;;;;;;1.52;0.95;;;0.30;94.20;;;;;;5002248;28;20031;-80
2022/01/07 00:57:41;;;;;;;1.63;1.10;;;0.30;94.20;;;;;;5007171;28;20022;-82
2022/01/07 01:00:14;;;;;;;2.33;1.27;;;0.30;94.20;;;;;;4995403;28;20026;-81
2022/01/07 01:02:40;;;;;;;1.88;1.20;;;0.20;93.90;;;;;;4995735;28;20023;-80
2022/01/07 01:05:07;;;;;;;2.03;1.20;;;0.20;93.90;;;;;;4994643;28;20041;-81
2022/01/07 01:07:33;;;;;;;;;;;0.20;93.70;;;;;;5002547;28;20019;-79
2022/01/07 01:09:59;;;;;;;1.23;1.08;;;0.20;93.90;;;;;;5016683;28;19965;-79
2022/01/07 01:12:25;;;;;;;2.40;1.13;;;0.10;93.70;;;;;;5004447;28;20031;-82
2022/01/07 01:14:51;;;;;;;1.80;1.10;;;0.10;93.80;;;;;;4999936;28;20054;-79
2022/01/07 01:17:17;;;;;;;1.65;1.10;;;0.10;93.80;;;;;;5000352;28;20109;-82
2022/01/07 01:19:43;;;;;;;1.60;1.10;;;0.10;93.60;;;;;;4995721;28;20026;-80
2022/01/07 01:22:09;;;;;;;1.92;1.17;;;0.20;93.60;;;;;;4995231;28;20030;-82
2022/01/07 01:24:35;;;;;;;1.60;1.50;;;0.20;93.50;;;;;;4995225;28;20040;-81
2022/01/07 01:27:01;;;;;;;1.10;1.00;;;0.30;93.50;;;;;;4993872;28;20019;-81
2022/01/07 01:29:27;;;;;;;0.50;0.50;;;0.30;93.40;;;;;;4994874;28;20053;-81
2022/01/07 01:31:53;;;;;;;1.33;1.00;;;0.30;93.30;;;;;;4994830;28;20022;-79
2022/01/07 01:34:19;;;;;;;1.10;0.98;;;0.30;93.10;;;;;;4994842;28;20061;-80
2022/01/07 01:36:45;;;;;;;2.92;1.08;;;0.30;93.00;;;;;;4995079;28;20444;-79
2022/01/07 01:39:12;;;;;;;2.78;1.20;;;0.30;93.00;;;;;;4995136;28;20382;-81
2022/01/07 01:41:40;;;;;;;2.10;1.23;;;0.30;92.80;;;;;;4993532;28;20061;-80
2022/01/07 01:44:06;;;;;;;1.85;0.80;;;0.30;92.70;;;;;;4995033;28;20396;-81
2022/01/07 01:46:32;;;;;;;0.90;0.75;;;0.30;92.60;;;;;;4993922;28;20073;-81
2022/01/07 01:48:57;;;;;;;0.82;0.82;;;0.30;92.40;;;;;;4993794;28;20049;-81
2022/01/07 01:51:23;;;;;;;5.00;1.23;;;0.20;92.40;;;;;;4995242;28;20022;-80
2022/01/07 01:53:49;;;;;;;2.58;1.58;;;0.20;92.40;;;;;;5009800;28;20131;-81
2022/01/07 01:56:15;;;;;;;2.42;1.63;;;0.20;92.50;;;;;;5000045;28;20048;-80
2022/01/07 01:58:41;;;;;;;1.92;1.13;;;0.20;92.40;;;;;;4995818;28;20152;-81
2022/01/07 02:01:08;;;;;;;2.53;1.38;;;0.20;92.30;;;;;;4996153;28;20028;-79
2022/01/07 02:03:33;;;;;;;3.67;1.33;;;0.30;92.20;;;;;;4995699;28;20040;-81
2022/01/07 02:05:59;;;;;;;2.22;1.00;;;0.30;92.00;;;;;;4996636;28;20472;-81
2022/01/07 02:08:26;;;;;;;2.83;1.25;;;0.30;91.60;;;;;;4999248;28;20064;-81
2022/01/07 02:10:51;;;;;;;1.42;0.93;;;0.20;91.70;;;;;;4995078;28;20383;-80
2022/01/07 02:13:18;;;;;;;1.40;1.00;;;0.20;91.40;;;;;;4995519;28;20022;-80
2022/01/07 02:15:45;;;;;;;1.80;1.33;;;0.20;91.60;;;;;;4994089;28;20053;-80
2022/01/07 02:18:11;;;;;;;1.02;0.93;;;0.20;91.60;;;;;;4994329;28;20097;-80
2022/01/07 02:20:37;;;;;;;2.67;1.10;;;0.20;91.60;;;;;;4992971;28;20073;-80
2022/01/07 02:23:03;;;;;;;1.23;0.80;;;0.20;91.70;;;;;;4994785;28;20027;-82
2022/01/07 02:25:29;;;;;;;1.23;1.08;;;0.30;91.70;;;;;;4994327;28;20031;-80
2022/01/07 02:27:55;;;;;;;2.05;1.25;;;0.30;91.50;;;;;;4994110;28;20487;-81
2022/01/07 02:30:27;;;;;;;5.88;1.30;;;0.20;91.40;;;;;;4993990;28;20144;-81
2022/01/07 02:32:53;;;;;;;1.17;1.00;;;0.20;91.30;;;;;;4994326;28;20026;-80
2022/01/07 02:35:21;;;;;;;1.10;0.98;;;0.20;91.30;;;;;;4995819;28;20030;-80
2022/01/07 02:37:47;;;;;;;;;;;0.20;91.20;;;;;;4994056;28;20026;-80
2022/01/07 02:40:13;;;;;;;1.33;1.10;;;0.20;91.40;;;;;;4992342;28;19964;-80
2022/01/07 02:42:40;;;;;;;1.17;0.90;;;0.20;91.40;;;;;;4993709;28;20026;-80
2022/01/07 02:45:08;;;;;;;1.73;1.13;;;0.30;91.40;;;;;;4993783;28;20566;-81
2022/01/07 02:47:55;;;;;;;1.05;0.90;;;0.30;91.40;;;;;;4992821;28;20022;-82
2022/01/07 02:50:29;;;;;;;;;;;0.30;91.30;;;;;;4995213;28;20089;-83
2022/01/07 02:52:56;;;;;;;0.98;0.70;;;0.30;91.40;;;;;;4994528;28;19909;-82
2022/01/07 02:55:25;;;;;;;1.33;0.98;;;0.30;91.30;;;;;;4996247;28;20520;-81
2022/01/07 02:57:51;;;;;;;1.38;0.90;;;0.30;91.20;;;;;;5002943;28;20034;-82
2022/01/07 03:00:18;;;;;;;2.05;1.00;;;0.40;91.20;;;;;;5002487;28;20053;-81
2022/01/07 03:02:45;;;;;;;2.65;0.80;;;0.40;91.10;;;;;;4993076;28;20022;-83
2022/01/07 03:05:12;;;;;;;2.30;1.10;;;0.40;91.00;;;;;;4992477;28;20133;-83
2022/01/07 03:07:38;;;;;;;1.42;0.77;;;0.40;90.90;;;;;;4992086;28;20031;-83
2022/01/07 03:10:06;;;;;;;2.13;1.00;;;0.40;90.80;;;;;;4993963;28;20106;-84
2022/01/07 03:12:33;;;;;;;1.60;1.00;;;0.40;90.80;;;;;;4992845;28;20026;-82
2022/01/07 03:14:58;;;;;;;1.10;0.90;;;0.40;90.90;;;;;;4993911;28;20035;-84
2022/01/07 03:17:25;;;;;;;1.48;0.95;;;0.40;91.00;;;;;;5001570;28;20026;-83
2022/01/07 03:19:50;;;;;;;1.40;1.17;;;0.50;91.10;;;;;;5004589;28;20094;-82
2022/01/07 03:22:17;;;;;;;0.70;0.70;;;0.40;90.90;;;;;;5017864;28;20027;-82
2022/01/07 03:24:42;;;;;;;1.02;0.90;;;0.40;90.90;;;;;;5005336;28;20042;-83
2022/01/07 03:27:08;;;;;;;1.38;1.27;;;0.40;91.00;;;;;;4995435;28;20027;-82
2022/01/07 03:29:34;;;;;;;1.95;1.52;;;0.50;90.90;;;;;;4994840;28;20026;-82
2022/01/07 03:32:00;;;;;;;2.80;1.38;;;0.50;90.90;;;;;;4993950;28;20019;-82
2022/01/07 03:34:27;;;;;;;2.65;1.52;;;0.60;91.00;;;;;;4993533;28;20372;-83
2022/01/07 03:36:52;;;;;;;1.27;1.10;;;0.50;90.90;;;;;;4993122;28;20022;-80
2022/01/07 03:39:18;;;;;;;3.95;1.63;;;0.60;91.00;;;;;;4993005;28;20033;-81
2022/01/07 03:41:44;;;;;;;2.05;1.10;;;0.60;91.00;;;;;;4993719;28;20101;-80
2022/01/07 03:44:10;;;;;;;1.42;1.27;;;0.60;91.00;;;;;;4994535;28;20109;-80
2022/01/07 03:46:42;;;;;;;4.10;1.17;;;0.60;91.00;;;;;;4993768;28;20092;-82
2022/01/07 03:49:09;;;;;;;1.38;1.02;;;0.50;91.10;;;;;;4992888;28;20089;-82
2022/01/07 03:51:35;;;;;;;2.03;1.27;;;0.50;91.20;;;;;;4992955;28;20105;-80
2022/01/07 03:54:00;;;;;;;1.77;1.10;;;0.50;91.20;;;;;;4992909;28;20101;-81
2022/01/07 03:56:26;;;;;;;4.03;1.30;;;0.40;91.30;;;;;;4993036;28;20496;-81
2022/01/07 03:58:52;;;;;;;3.13;1.35;;;0.40;91.50;;;;;;4993342;28;20053;-80
2022/01/07 04:01:18;;;;;;;4.28;1.73;;;0.30;91.50;;;;;;4998093;28;20100;-80
2022/01/07 04:03:44;;;;;;;4.13;1.75;;;0.30;91.60;;;;;;5002442;28;20065;-77
2022/01/07 04:06:09;;;;;;;2.75;1.25;;;0.20;91.70;;;;;;4993669;28;20031;-81
2022/01/07 04:08:35;;;;;;;1.80;1.42;;;0.20;92.00;;;;;;4992954;28;20030;-81
2022/01/07 04:11:01;;;;;;;4.25;1.90;;;0.20;92.20;;;;;;4992992;28;20109;-80
2022/01/07 04:13:27;;;;;;;2.85;1.60;;;0.10;92.40;;;;;;4992901;28;20484;-81
2022/01/07 04:15:52;;;;;;;3.50;1.42;;;0.00;92.60;;;;;;4992459;28;20038;-81
2022/01/07 04:18:18;;;;;;;2.17;1.33;;;0.00;92.70;;;;;;4991768;28;20117;-82
2022/01/07 04:20:44;;;;;;;2.40;1.15;;;-0.20;92.60;;;;;;4992632;28;20034;-80
2022/01/07 04:23:10;;;;;;;2.58;1.63;;;-0.20;92.60;;;;;;4992721;28;20022;-83
2022/01/07 04:25:36;;;;;;;2.00;1.83;;;-0.20;92.60;;;;;;4992446;28;20034;-81
2022/01/07 04:28:05;;;;;;;1.35;0.95;;;-0.30;92.50;;;;;;4992766;28;20026;-82
2022/01/07 04:30:37;;;;;;;2.03;1.20;;;-0.30;92.40;;;;;;4992300;28;20030;-81
2022/01/07 04:33:04;;;;;;;1.13;1.02;;;-0.30;92.30;;;;;;4992377;28;20026;-81
2022/01/07 04:35:32;;;;;;;1.58;1.10;;;-0.40;92.10;;;;;;4992966;28;20019;-80
2022/01/07 04:37:58;;;;;;;1.42;1.08;;;-0.40;91.90;;;;;;4995802;28;20077;-81
2022/01/07 04:40:24;;;;;;;1.50;1.20;;;-0.40;91.60;;;;;;4984192;28;20047;-80
2022/01/07 04:42:50;;;;;;;1.30;1.00;;;-0.50;91.70;;;;;;4975106;28;20086;-81
2022/01/07 04:45:16;;;;;;;1.95;1.25;;;-0.50;91.70;;;;;;4976411;28;20038;-81
2022/01/07 04:47:42;;;;;;;2.83;1.50;;;-0.50;91.70;;;;;;4980902;28;20066;-80
2022/01/07 04:50:12;;;;;;;1.33;0.90;;;-0.50;91.90;;;;;;5000590;28;20026;-81
2022/01/07 04:52:40;;;;;;;2.80;1.08;;;-0.50;92.00;;;;;;4997939;28;20026;-80
2022/01/07 04:55:07;;;;;;;1.60;1.08;;;-0.60;92.20;;;;;;4996331;28;20030;-81
2022/01/07 04:57:33;;;;;;;2.42;1.40;;;-0.60;92.60;;;;;;5008521;28;20031;-80
2022/01/07 04:59:59;;;;;;;1.77;1.15;;;-0.60;93.00;;;;;;5004933;28;20042;-81
2022/01/07 05:02:27;;;;;;;5.07;1.60;;;-0.70;93.30;;;;;;4995930;28;20419;-81
2022/01/07 05:04:53;;;;;;;1.90;1.15;;;-0.70;93.50;;;;;;4995747;28;20042;-81
2022/01/07 05:07:19;;;;;;;1.48;1.17;;;-0.70;93.60;;;;;;4995917;28;20510;-79
2022/01/07 05:09:44;;;;;;;2.42;1.42;;;-0.80;93.60;;;;;;4996265;28;20026;-81
2022/01/07 05:12:10;;;;;;;1.55;1.15;;;-0.80;93.60;;;;;;4995577;28;20073;-81
2022/01/07 05:14:36;;;;;;;1.95;1.50;;;-0.90;93.50;;;;;;4997477;28;20105;-82
2022/01/07 05:17:02;;;;;;;2.60;1.30;;;-0.90;93.30;;;;;;4996924;28;20106;-84
2022/01/07 05:19:28;;;;;;;2.60;1.25;;;-0.90;93.10;;;;;;4995743;28;20026;-82
2022/01/07 05:21:54;;;;;;;1.35;1.17;;;-0.90;92.90;;;;;;4995326;28;20057;-80
2022/01/07 05:24:20;;;;;;;1.60;1.45;;;-0.90;92.50;;;;;;4996875;28;20034;-82
2022/01/07 05:26:45;;;;;;;1.58;0.93;;;-0.90;92.30;;;;;;4995769;28;20022;-81
2022/01/07 05:29:11;;;;;;;1.30;1.00;;;-0.90;92.00;;;;;;4997163;28;20022;-82
2022/01/07 05:31:37;;;;;;;2.83;1.10;;;-0.90;91.90;;;;;;5002554;28;20022;-82
2022/01/07 05:34:03;;;;;;;2.53;1.60;;;-0.90;91.80;;;;;;5019781;28;20021;-80
2022/01/07 05:36:29;;;;;;;1.23;1.10;;;-0.80;91.70;;;;;;5013292;28;20038;-81
2022/01/07 05:38:55;;;;;;;1.23;1.13;;;-0.80;91.20;;;;;;4996035;28;20037;-81
2022/01/07 05:41:21;;;;;;;2.25;1.40;;;-0.80;91.10;;;;;;4995072;28;20069;-80
2022/01/07 05:43:47;;;;;;;1.40;1.10;;;-0.80;90.90;;;;;;4993634;28;20030;-83
2022/01/07 05:46:15;;;;;;;1.73;1.30;;;-0.80;90.70;;;;;;4994959;28;20026;-84
2022/01/07 05:48:44;;;;;;;1.90;1.30;;;-0.80;90.40;;;;;;4997239;28;20571;-83
2022/01/07 05:51:11;;;;;;;2.25;1.55;;;-0.80;90.30;;;;;;5012404;28;20407;-81
2022/01/07 05:53:37;;;;;;;1.50;1.20;;;-0.90;90.10;;;;;;4997344;28;20027;-82
2022/01/07 05:56:04;;;;;;;2.22;2.00;;;-0.90;90.10;;;;;;4998849;28;20023;-83
2022/01/07 05:58:30;;;;;;;2.13;1.73;;;-1.00;90.20;;;;;;4995617;28;20030;-84
2022/01/07 06:00:56;;;;;;;2.75;1.60;;;-1.00;90.20;;;;;;5003131;28;20065;-84
2022/01/07 06:03:22;;;;;;;1.75;1.38;;;-1.00;90.30;;;;;;5002960;28;20018;-83
2022/01/07 06:05:48;;;;;;;1.92;1.20;;;-1.00;90.30;;;;;;4995509;28;20097;-84
2022/01/07 06:08:14;;;;;;;1.27;0.93;;;-1.00;90.20;;;;;;4995151;28;20562;-81
2022/01/07 06:10:40;;;;;;;2.28;1.30;;;-1.00;90.00;;;;;;4996849;28;20431;-83
2022/01/07 06:13:06;;;;;;;3.60;1.42;;;-1.10;88.80;;;;;;4994923;28;20027;-83
2022/01/07 06:15:32;;;;;;;1.52;1.33;;;-1.10;88.50;;;;;;4994112;28;20414;-81
2022/01/07 06:17:59;;;;;;;2.28;1.15;;;-1.10;88.60;;;;;;4994373;28;20034;-82
2022/01/07 06:20:26;;;;;;;1.67;1.10;;;-1.20;88.50;;;;;;4994378;28;20512;-83
2022/01/07 06:22:51;;;;;;;2.25;1.52;;;-1.20;88.20;;;;;;4994680;28;20030;-82
2022/01/07 06:25:17;;;;;;;1.85;1.50;;;-1.20;87.00;;;;;;4992657;28;20526;-82
2022/01/07 06:27:43;;;;;;;1.95;1.55;;;-1.20;86.70;;;;;;4994140;28;20134;-80
2022/01/07 06:30:09;;;;;;;1.92;1.60;;;-1.20;87.10;;;;;;4994236;28;20443;-83
2022/01/07 06:32:35;;;;;;;2.58;1.95;;;-1.20;87.20;;;;;;4997940;28;20025;-81
2022/01/07 06:35:01;;;;;;;2.63;1.73;;;-1.30;87.40;;;;;;5003994;28;20026;-83
2022/01/07 06:37:27;;;;;;;2.33;1.58;;;-1.30;87.70;;;;;;4993131;28;20034;-80
2022/01/07 06:39:53;;;;;;;4.43;2.05;;;-1.30;88.10;;;;;;4993282;28;20026;-81
2022/01/07 06:42:19;;;;;;;1.88;1.50;;;-1.40;88.30;;;;;;4994823;28;20080;-81
2022/01/07 06:44:44;;;;;;;3.35;2.05;;;-1.40;89.10;;;;;;4997896;28;20053;-83
2022/01/07 06:47:10;;;;;;;3.08;1.85;;;-1.40;88.40;;;;;;4995592;28;20027;-81
2022/01/07 06:49:37;;;;;;;2.60;1.70;;;-1.50;88.70;;;;;;4975511;28;20483;-82
2022/01/07 06:52:04;;;;;;;2.50;1.90;;;-1.50;88.80;;;;;;4973807;28;20069;-80
2022/01/07 06:54:31;;;;;;;2.58;2.05;;;-1.50;89.10;;;;;;4975343;28;20027;-82
2022/01/07 06:56:57;;;;;;;2.15;1.75;;;-1.50;89.20;;;;;;4974454;28;20029;-80
2022/01/07 06:59:23;;;;;;;2.08;1.58;;;-1.50;88.90;;;;;;4974840;28;20114;-82
2022/01/07 07:01:49;;;;;;;5.20;2.10;;;-1.50;88.30;;;;;;4974544;28;20027;-81
2022/01/07 07:04:16;;;;;;;1.60;1.35;;;-1.50;88.20;;;;;;4973866;28;20097;-81
2022/01/07 07:06:43;;;;;;;3.10;1.60;;;-1.50;88.00;;;;;;4974002;28;20027;-81
2022/01/07 07:09:09;;;;;;;3.53;2.33;;;-1.40;88.10;;;;;;4975160;28;20054;-81
2022/01/07 07:11:35;;;;;;;3.88;1.83;;;-1.40;88.20;;;;;;4993702;28;20260;-81
2022/01/07 07:14:01;;;;;;;3.92;1.75;;;-1.40;87.80;;;;;;4994196;28;20026;-80
2022/01/07 07:16:27;;;;;;;5.50;2.05;;;-1.40;87.90;;;;;;4994454;28;20034;-80
2022/01/07 07:18:53;;;;;;;6.35;2.67;;;-1.50;87.60;;;;;;4993958;28;20033;-83
2022/01/07 07:21:18;;;;;;;3.85;1.73;;;-1.50;87.30;;;;;;4992850;28;20054;-84
2022/01/07 07:23:44;;;;;;;5.47;2.97;;;-1.50;87.10;;;;;;4993229;28;20484;-81
2022/01/07 07:26:10;;;;;;;2.50;1.60;;;-1.50;86.40;;;;;;4993424;28;20101;-82
2022/01/07 07:28:36;;;;;;;2.33;1.52;;;-1.50;84.40;;;;;;4994045;28;20508;-82
2022/01/07 07:31:11;;;;;;;2.47;1.15;;;-1.60;83.50;;;;;;4997377;28;20030;-82
2022/01/07 07:34:06;;;;;;;4.13;1.38;;;-1.70;81.80;;;;;;5002300;28;20118;-82
2022/01/07 07:36:31;;;;;;;3.78;1.92;;;-1.80;81.00;;;;;;4995036;28;20034;-82
2022/01/07 07:39:05;;;;;;;4.18;2.50;;;-1.90;81.80;;;;;;4995479;28;20514;-83
2022/01/07 07:41:32;;;;;;;2.80;1.58;;;-2.00;82.30;;;;;;4995197;28;20149;-83
2022/01/07 07:43:59;;;;;;;1.95;1.60;;;-2.00;82.30;;;;;;5001482;28;20054;-82
2022/01/07 07:46:27;;;;;;;4.05;2.90;;;-2.10;82.50;;;;;;5011184;28;20039;-80
2022/01/07 07:48:53;;;;;;;4.38;2.70;;;-2.10;82.60;;;;;;4993514;28;20029;-82
2022/01/07 07:51:19;;;;;;;2.60;1.50;;;-2.10;82.70;;;;;;4974986;28;20362;-82
2022/01/07 07:53:46;;;;;;;4.65;2.45;;;-2.00;82.30;;;;;;4974754;28;20023;-84
2022/01/07 07:56:15;;;;;;;6.93;2.40;;;-2.00;82.40;;;;;;4989823;28;20031;-83
2022/01/07 07:58:42;;;;;;;3.90;2.00;;;-1.90;82.30;;;;;;4987211;28;20058;-81
2022/01/07 08:01:08;;;;;;;6.05;2.00;;;-1.90;82.30;;;;;;4983304;28;20022;-83
2022/01/07 08:03:34;;;;;;;3.25;1.95;;;-1.90;82.50;;;;;;4990328;28;20129;-85
2022/01/07 08:06:00;;;;;;;3.08;1.90;;;-1.80;82.70;;;;;;4989751;28;20066;-83
2022/01/07 08:08:26;;;;;;;4.18;2.17;;;-1.70;82.60;;;;;;4974793;28;20027;-82
2022/01/07 08:10:56;;;;;;;2.22;1.48;;;-1.60;82.30;;;;;;4989713;28;20030;-83
2022/01/07 08:15:57;;;;;;;4.22;2.28;;;-1.50;81.50;;;;;;4997508;28;21167;-82
2022/01/07 08:16:19;;;;;;;3.28;2.20;;;-1.30;81.80;;;;;;4997925;28;20026;-83
2022/01/07 08:18:48;;;;;;;3.15;2.25;;;-1.10;81.10;;;;;;4998061;28;20045;-83
2022/01/07 08:21:15;;;;;;;3.10;1.67;;;-1.00;80.90;;;;;;4998369;28;20360;-83
2022/01/07 08:23:42;;;;;;;3.97;1.90;;;-1.00;79.50;;;;;;4997651;28;20463;-82
2022/01/07 08:26:10;;;;;;;4.55;2.42;;;-1.10;79.10;;;;;;4986660;28;20033;-82
2022/01/07 08:28:44;;;;;;;4.72;2.38;;;-1.10;79.70;;;;;;4992363;28;20069;-82
2022/01/07 08:36:26;;;;;;;3.70;2.50;;;-0.50;79.00;;;;;;4999128;28;20022;-79
2022/01/07 08:38:53;;;;;;;3.67;2.60;;;-0.70;77.80;;;;;;4998764;28;20086;-80
2022/01/07 08:41:21;;;;;;;2.97;2.10;;;-0.90;78.20;;;;;;5004616;28;20046;-79
2022/01/07 08:43:47;;;;;;;4.45;2.22;;;-1.10;78.50;;;;;;4997336;28;20026;-81
2022/01/07 08:46:13;;;;;;;4.47;2.45;;;-1.10;79.20;;;;;;4995350;28;20030;-83
2022/01/07 08:48:39;;;;;;;2.45;1.77;;;-1.00;79.50;;;;;;4996160;28;20022;-83
2022/01/07 08:51:07;;;;;;;3.78;2.65;;;-0.90;78.60;;;;;;4995699;28;20023;-82
2022/01/07 08:53:33;;;;;;;;;;;-1.00;77.60;;;;;;4995705;28;20099;-82
2022/01/07 08:55:59;;;;;;;5.28;2.38;;;-1.20;78.00;;;;;;4996241;28;19995;-81
2022/01/07 08:58:25;;;;;;;3.15;1.60;;;-1.30;77.50;;;;;;4986882;28;20020;-82
2022/01/07 09:00:51;;;;;;;2.53;1.85;;;-1.40;77.10;;;;;;5003008;28;20031;-86
2022/01/07 09:03:17;;;;;;;3.83;2.50;;;-1.40;76.60;;;;;;4999682;28;20049;-88
2022/01/07 09:05:43;;;;;;;3.40;1.52;;;-1.60;76.20;;;;;;5006537;28;20480;-83
2022/01/07 09:08:10;;;;;;;3.65;2.72;;;-1.70;76.70;;;;;;4999773;28;20019;-88
2022/01/07 09:10:36;;;;;;;3.17;2.20;;;-1.90;76.70;;;;;;5001020;28;20395;-80
2022/01/07 09:13:02;;;;;;;4.43;2.42;;;-2.20;76.90;;;;;;4999643;28;20038;-85
2022/01/07 09:15:28;;;;;;;2.40;1.60;;;-2.30;77.40;;;;;;4997714;28;20105;-87
2022/01/07 09:17:54;;;;;;;1.63;1.38;;;-2.30;75.50;;;;;;5000282;28;20046;-85
2022/01/07 09:20:22;;;;;;;2.95;1.90;;;-2.30;75.30;;;;;;4999717;28;20101;-83
2022/01/07 09:22:49;;;;;;;5.45;2.33;;;-2.20;75.20;;;;;;4988686;28;20463;-85
2022/01/07 09:25:15;;;;;;;5.18;2.13;;;-1.80;75.40;;;;;;4995017;28;20042;-82
2022/01/07 09:27:42;;;;;;;4.72;3.40;;;-1.60;73.20;;;;;;4993545;28;20023;-84
2022/01/07 09:30:12;;;;;;;4.10;3.33;;;-1.60;73.80;;;;;;4981022;28;20039;-83
2022/01/07 09:32:38;;;;;;;2.88;1.92;;;-1.70;74.00;;;;;;4995214;28;20431;-81
2022/01/07 09:35:06;;;;;;;1.88;1.58;;;-1.80;74.50;;;;;;4996410;28;20037;-81
2022/01/07 09:37:32;;;;;;;3.10;1.48;;;-1.80;74.40;;;;;;4995894;28;20034;-84
2022/01/07 09:40:00;;;;;;;1.80;1.48;;;-1.80;74.40;;;;;;4998729;28;20033;-82
2022/01/07 09:42:27;;;;;;;2.42;1.45;;;-1.90;74.60;;;;;;4995438;28;20030;-84
2022/01/07 09:44:53;;;;;;;2.42;1.55;;;-2.00;74.40;;;;;;4976349;28;20122;-83
2022/01/07 09:47:19;;;;;;;2.10;1.50;;;-2.10;74.80;;;;;;4993040;28;20035;-83
2022/01/07 09:49:45;;;;;;;2.75;1.48;;;-2.20;75.60;;;;;;4986550;28;20081;-80
2022/01/07 09:52:11;;;;;;;3.20;1.23;;;-2.30;76.20;;;;;;4994173;28;20031;-82
2022/01/07 09:54:39;;;;;;;3.38;1.23;;;-2.30;76.20;;;;;;4988630;28;20031;-79
2022/01/07 09:57:07;;;;;;;2.80;1.55;;;-2.30;76.40;;;;;;4998274;28;20018;-79
2022/01/07 09:59:33;;;;;;;;;;;-2.40;76.10;;;;;;5008505;28;20045;-84
2022/01/07 10:02:01;;;;;;;3.38;2.15;;;-2.60;76.40;;;;;;5001219;28;19921;-81
2022/01/07 10:04:33;;;;;;;2.67;1.85;;;-2.80;77.10;;;;;;4997391;28;20046;-81
2022/01/07 10:07:21;;;;;;;2.20;1.35;;;-2.90;78.00;;;;;;4995312;28;20033;-83
2022/01/07 10:10:02;;;;;;;4.18;1.77;;;-2.90;78.30;;;;;;4994999;28;20041;-81
2022/01/07 10:12:51;;;;;;;2.35;1.50;;;-3.00;78.60;;;;;;4994714;28;20410;-85
2022/01/07 10:15:19;;;;;;;3.47;1.67;;;-2.60;79.50;;;;;;4994477;28;20368;-80
2022/01/07 10:18:09;;;;;;;2.00;1.70;;;-1.90;78.90;;;;;;4993389;28;20027;-80
2022/01/07 10:20:37;;;;;;;1.80;1.70;;;-1.00;77.30;;;;;;4996632;28;20116;-82
2022/01/07 10:23:23;;;;;;;2.53;1.55;;;-0.10;75.20;;;;;;4994211;28;20510;-83
2022/01/07 10:25:53;;;;;;;2.20;1.70;;;0.70;72.20;;;;;;4994048;28;20041;-82
2022/01/07 10:28:21;;;;;;;1.75;1.42;;;1.60;70.90;;;;;;4992881;28;20069;-83
2022/01/07 10:30:50;;;;;;;;;;;2.60;67.80;;;;;;4981033;28;20042;-82
2022/01/07 10:33:39;;;;;;;2.92;1.73;;;3.40;68.70;;;;;;4994917;28;20008;-83
2022/01/07 10:36:08;;;;;;;2.33;1.67;;;3.60;61.70;;;;;;4999586;28;20061;-83
2022/01/07 10:38:36;;;;;;;3.33;1.45;;;3.20;61.30;;;;;;5002699;28;20109;-86
2022/01/07 10:41:03;;;;;;;1.75;1.42;;;2.40;60.80;;;;;;5010786;28;20069;-86
2022/01/07 10:43:34;;;;;;;2.47;1.63;;;1.50;61.80;;;;;;4994133;28;20432;-88
2022/01/07 10:46:12;;;;;;;1.67;1.33;;;0.60;63.30;;;;;;4987681;28;20035;-88
2022/01/07 10:48:42;;;;;;;;;;;-0.20;65.30;;;;;;4971418;28;20054;-85
2022/01/07 10:51:11;;;;;;;2.97;1.67;;;-0.60;66.70;;;;;;4970531;28;19906;-81
2022/01/07 10:53:40;;;;;;;1.77;1.30;;;-1.00;67.40;;;;;;4972223;28;20027;-82
2022/01/07 10:56:12;;;;;;;5.28;1.80;;;-1.30;68.50;;;;;;4972185;28;20058;-86
2022/01/07 10:58:46;;;;;;;2.63;1.73;;;-1.50;69.50;;;;;;4962855;28;20551;-82
2022/01/07 11:01:21;;;;;;;2.38;1.25;;;-1.70;70.10;;;;;;4937831;29;20436;-82
2022/01/07 11:03:47;;;;;;;2.05;1.42;;;-1.90;70.50;;;;;;4953638;29;20046;-82
2022/01/07 11:06:12;;;;;;;4.53;1.70;;;-2.20;71.30;;;;;;4952897;29;20031;-83
2022/01/07 11:08:40;;;;;;;3.17;1.92;;;-2.30;71.90;;;;;;4953463;29;20507;-83
2022/01/07 11:11:08;;;;;;;2.47;1.35;;;-2.40;72.60;;;;;;4969288;28;20559;-82
2022/01/07 11:13:35;;;;;;;3.10;1.75;;;-2.50;72.90;;;;;;4972134;28;20035;-82
2022/01/07 11:16:02;;;;;;;3.30;1.35;;;-2.50;73.50;;;;;;4974368;28;20030;-82
2022/01/07 11:18:28;;;;;;;5.60;2.47;;;-2.60;73.60;;;;;;4993938;28;20026;-82
2022/01/07 11:20:58;;;;;;;3.30;1.30;;;-2.80;73.90;;;;;;4993685;28;20031;-82
2022/01/07 11:23:28;;;;;;;2.92;1.63;;;-2.80;74.60;;;;;;4994541;28;20372;-82
2022/01/07 11:26:04;;;;;;;2.17;1.10;;;-2.90;74.90;;;;;;4994858;28;20075;-81
2022/01/07 11:28:30;;;;;;;2.45;1.48;;;-2.90;75.10;;;;;;4994028;28;20031;-82
2022/01/07 11:31:13;;;;;;;2.33;0.90;;;-2.90;75.20;;;;;;4992605;28;20121;-81
2022/01/07 11:33:40;;;;;;;2.65;1.70;;;-3.00;75.30;;;;;;4996304;28;20338;-82
2022/01/07 11:36:33;;;;;;;2.25;1.83;;;-3.00;75.50;;;;;;4996549;28;20035;-78
2022/01/07 11:39:04;;;;;;;1.60;1.30;;;-3.00;75.80;;;;;;5003516;28;20061;-78
2022/01/07 11:41:48;;;;;;;3.22;1.70;;;-3.00;76.00;;;;;;4993811;28;20409;-82
2022/01/07 11:44:28;;;;;;;1.73;1.00;;;-3.00;76.20;;;;;;4990110;28;20139;-82
2022/01/07 11:47:23;;;;;;;2.17;1.38;;;-3.00;76.30;;;;;;4978865;28;20388;-85
2022/01/07 11:50:07;;;;;;;2.10;1.88;;;-3.00;76.30;;;;;;4985689;28;20034;-79
2022/01/07 11:52:37;;;;;;;2.10;1.50;;;-3.00;76.40;;;;;;4977753;28;20474;-78
2022/01/07 11:55:37;;;;;;;3.97;1.95;;;-3.00;76.40;;;;;;4981131;28;20039;-78
2022/01/07 11:58:10;;;;;;;4.70;1.42;;;-3.00;76.60;;;;;;4999004;28;20101;-81
2022/01/07 12:01:06;;;;;;;3.75;2.90;;;-3.00;76.60;;;;;;4996908;28;20026;-81
2022/01/07 12:03:45;;;;;;;2.67;1.60;;;-3.10;76.90;;;;;;4988046;28;20129;-79
2022/01/07 12:06:26;;;;;;;2.05;1.23;;;-3.10;76.60;;;;;;4980536;28;20054;-78
2022/01/07 12:09:10;;;;;;;3.15;1.63;;;-3.20;76.80;;;;;;4981287;28;20026;-79
2022/01/07 12:11:41;;;;;;;4.93;2.90;;;-3.20;77.20;;;;;;4996987;28;20134;-80
2022/01/07 12:14:14;;;;;;;4.68;3.20;;;-3.20;77.50;;;;;;4978408;28;20031;-79
2022/01/07 12:16:46;;;;;;;5.70;2.55;;;-3.20;78.00;;;;;;4977295;28;20357;-81
2022/01/07 12:19:12;;;;;;;3.65;1.98;;;-3.20;78.30;;;;;;4977520;28;20064;-80
2022/01/07 12:21:38;;;;;;;4.18;2.50;;;-3.30;78.00;;;;;;4976925;28;20496;-80
2022/01/07 12:24:20;;;;;;;2.15;1.55;;;-3.30;78.00;;;;;;4977123;28;20042;-79
2022/01/07 12:26:46;;;;;;;1.98;1.67;;;-3.40;78.20;;;;;;4977200;28;20023;-80
2022/01/07 12:29:20;;;;;;;2.88;1.95;;;-3.40;78.80;;;;;;4981819;28;20549;-80
2022/01/07 12:31:50;;;;;;;8.38;2.45;;;-3.40;79.20;;;;;;4996051;28;20102;-81
2022/01/07 12:34:25;;;;;;;5.28;2.00;;;-3.40;79.20;;;;;;4996364;28;20431;-78
2022/01/07 12:36:56;;;;;;;2.10;1.55;;;-3.40;79.40;;;;;;4995699;28;20033;-79
2022/01/07 12:39:32;;;;;;;6.97;1.98;;;-3.50;79.60;;;;;;4995987;28;20030;-80
2022/01/07 12:41:59;;;;;;;5.57;2.57;;;-3.50;79.90;;;;;;4996180;28;20610;-79
2022/01/07 12:44:25;;;;;;;5.53;2.03;;;-3.50;80.10;;;;;;4996467;28;20026;-80
2022/01/07 12:46:56;;;;;;;2.83;1.90;;;-3.50;80.40;;;;;;4994141;28;20440;-78
2022/01/07 12:49:53;;;;;;;2.72;1.67;;;-3.60;80.50;;;;;;4976158;28;20288;-79
2022/01/07 12:52:20;;;;;;;;;;;-3.60;80.90;;;;;;4976017;28;20039;-78
2022/01/07 12:54:54;;;;;;;3.92;2.28;;;-3.60;80.90;;;;;;4978025;28;19921;-83
2022/01/07 12:57:48;;;;;;;4.28;2.45;;;-3.70;81.40;;;;;;4991224;28;20031;-82
2022/01/07 13:00:14;;;;;;;3.38;2.15;;;-3.70;82.30;;;;;;4997975;28;20125;-83
2022/01/07 13:02:45;;;;;;;4.00;2.00;;;-3.70;82.50;;;;;;4997174;28;20022;-83
2022/01/07 13:05:29;;;;;;;4.55;2.10;;;-3.80;83.00;;;;;;4996891;28;20018;-81